METAR Data
IDs: Format: Raw Decoded Include TAF

Data at: 0123 UTC 24 Sep 2018

KPLN 240054Z AUTO 08010KT 10SM OVC008 11/09 A3029 RMK AO2 SLP260 T01110094
KPLN 232354Z AUTO 08011KT 10SM OVC009 12/09 A3027 RMK AO2 SLP255 T01170094 10200 20111 50005
KPLN 232254Z AUTO 08010G19KT 10SM OVC009 12/09 A3027 RMK AO2 SLP256 T01170089
KPLN 232154Z AUTO 09013G21KT 10SM OVC009 12/09 A3026 RMK AO2 SLP249 T01220094
KPLN 232150Z AUTO 09012G21KT 10SM OVC009 12/09 A3025 RMK AO2
KPLN 232054Z AUTO 06010KT 10SM OVC012 13/11 A3025 RMK AO2 SLP247 T01330106 53011
KPLN 232006Z AUTO 07010KT 10SM BKN014 BKN029 BKN055 15/11 A3024 RMK AO2 T01500106
KPLN 231954Z AUTO 07012KT 10SM FEW014 SCT060 15/11 A3023 RMK AO2 SLP240 T01500111
KPLN 231854Z AUTO 04012KT 10SM BKN043 BKN055 17/12 A3022 RMK AO2 WSHFT 1823 SLP235 T01670122
KPLN 231843Z AUTO 04011KT 10SM BKN043 OVC055 17/12 A3022 RMK AO2 WSHFT 1823 T01720117
KPLN 231754Z AUTO VRB04KT 10SM FEW038 BKN049 OVC060 19/09 A3022 RMK AO2 SLP234 T01890094 10200 20067 58004
KPLN 231654Z AUTO 20006KT 10SM SCT033 BKN048 BKN055 18/10 A3023 RMK AO2 SLP238 T01780100
KPLN 231554Z AUTO 00000KT 10SM FEW031 BKN120 18/11 A3022 RMK AO2 SLP238 T01780106
KPLN 231454Z AUTO 24003KT 10SM SCT120 16/11 A3023 RMK AO2 SLP240 T01560111 51010
KPLN 231354Z AUTO 00000KT 10SM OVC120 12/10 A3022 RMK AO2 SLP237 T01220100
KPLN 231254Z AUTO 00000KT 10SM CLR 10/09 A3021 RMK AO2 SLP234 T01000089
KPLN 231154Z AUTO 00000KT 10SM CLR 06/06 A3020 RMK AO2 SLP231 T00610061 10111 20061 53005
KPLN 231054Z AUTO 00000KT 5SM BR CLR 07/06 A3019 RMK AO2 SLP227 T00670061
KPLN 230954Z AUTO 00000KT 10SM CLR 07/07 A3019 RMK AO2 SLP227 T00720067
KPLN 230854Z AUTO 00000KT 10SM FEW120 09/08 A3018 RMK AO2 SLP223 T00940083 55003
KPLN 230754Z AUTO 00000KT 10SM OVC095 11/09 A3018 RMK AO2 SLP221 T01060089
KPLN 230654Z AUTO 00000KT 10SM OVC100 11/09 A3019 RMK AO2 SLP225 T01060089
KPLN 230554Z AUTO 00000KT 10SM OVC095 09/08 A3019 RMK AO2 SLP226 T00890078 10100 20050 58005
KPLN 230454Z AUTO 00000KT 10SM OVC110 08/07 A3020 RMK AO2 SLP230 T00780067 401670006
KPLN 230354Z AUTO 00000KT 10SM CLR 06/05 A3020 RMK AO2 SLP231 T00560050
KPLN 230254Z AUTO 00000KT 10SM CLR 07/06 A3021 RMK AO2 SLP232 T00670056 55003
KPLN 230154Z AUTO 00000KT 10SM CLR 07/06 A3019 RMK AO2 SLP228 T00670061
KPLN 230054Z AUTO 00000KT 10SM CLR 08/07 A3020 RMK AO2 SLP231 T00780067
KPLN 222354Z AUTO 00000KT 10SM CLR 10/07 A3021 RMK AO2 SLP238 T01000072 10167 20100 56008
KPLN 222254Z AUTO 26005KT 10SM CLR 14/06 A3022 RMK AO2 SLP239 T01440061
KPLN 222154Z AUTO 26007KT 10SM CLR 16/06 A3022 RMK AO2 SLP238 T01560056
KPLN 222054Z AUTO 26007KT 10SM CLR 16/05 A3024 RMK AO2 SLP244 T01610050 56020
KPLN 221954Z AUTO 29009KT 10SM CLR 16/04 A3025 RMK AO2 SLP247 T01610044
KPLN 221854Z AUTO 21008KT 10SM FEW043 16/05 A3027 RMK AO2 SLP253 T01610050
KPLN 221754Z AUTO 25008KT 10SM SCT044 15/05 A3030 RMK AO2 SLP263 T01500050 10156 20011 58015
KPLN 221654Z AUTO 23007G16KT 10SM BKN042 15/05 A3032 RMK AO2 SLP271 T01500050
KPLN 221554Z AUTO VRB05KT 10SM BKN039 BKN046 14/05 A3034 RMK AO2 SLP276 T01440050
KPLN 221454Z AUTO VRB04KT 10SM FEW030 13/06 A3034 RMK AO2 SLP278 T01280061 50001
KPLN 221354Z AUTO 16006KT 10SM CLR 11/06 A3035 RMK AO2 SLP281 T01060061